createdAt,value
2018-08-28T00:01:00.124Z,981.6
2018-08-28T00:02:01.382Z,981.7
2018-08-28T00:03:02.678Z,981.7
2018-08-28T00:04:04.000Z,981.8
2018-08-28T00:05:05.429Z,981.7
2018-08-28T00:06:09.473Z,981.8
2018-08-28T00:07:13.227Z,981.7
2018-08-28T00:08:15.533Z,981.7
2018-08-28T00:09:16.797Z,981.8
2018-08-28T00:10:18.051Z,981.8
2018-08-28T00:11:19.271Z,981.7
2018-08-28T00:12:20.672Z,981.7
2018-08-28T00:13:21.915Z,981.8
2018-08-28T00:14:25.527Z,981.8
2018-08-28T00:15:27.931Z,981.7
2018-08-28T00:16:31.892Z,981.8
2018-08-28T00:17:33.152Z,981.8
2018-08-28T00:18:34.366Z,981.9
2018-08-28T00:19:35.593Z,981.8
2018-08-28T00:20:36.898Z,981.8
2018-08-28T00:21:40.513Z,981.8
2018-08-28T00:22:41.731Z,981.7
2018-08-28T00:23:42.963Z,981.8
2018-08-28T00:24:44.195Z,981.8
2018-08-28T00:25:45.500Z,981.8
2018-08-28T00:26:46.753Z,981.9
2018-08-28T00:27:48.003Z,981.8
2018-08-28T00:28:49.242Z,981.8
2018-08-28T00:29:50.758Z,981.9
2018-08-28T00:30:52.046Z,981.9
2018-08-28T00:31:57.636Z,981.8
2018-08-28T00:32:58.887Z,981.8
2018-08-28T00:34:02.946Z,981.8
2018-08-28T00:35:05.555Z,981.9
2018-08-28T00:36:06.841Z,981.9
2018-08-28T00:37:08.298Z,981.7
2018-08-28T00:38:09.539Z,981.8
2018-08-28T00:39:10.759Z,981.9
2018-08-28T00:40:11.979Z,981.8
2018-08-28T00:41:13.256Z,981.8
2018-08-28T00:42:14.644Z,981.9
2018-08-28T00:43:15.868Z,981.8
2018-08-28T00:44:17.104Z,981.9
2018-08-28T00:45:18.325Z,981.9
2018-08-28T00:46:19.585Z,981.9
2018-08-28T00:47:20.838Z,981.8
2018-08-28T00:48:27.233Z,981.9
2018-08-28T00:49:28.458Z,982
2018-08-28T00:50:34.535Z,982
2018-08-28T00:51:38.226Z,982
2018-08-28T00:52:39.447Z,982
2018-08-28T00:53:43.110Z,982
2018-08-28T00:54:44.362Z,982
2018-08-28T00:55:45.600Z,982
2018-08-28T00:56:47.070Z,982
2018-08-28T00:57:48.279Z,982.1
2018-08-28T00:58:49.475Z,982.1
2018-08-28T00:59:50.722Z,982.1
2018-08-28T01:00:51.978Z,982.1
2018-08-28T01:01:53.299Z,982
2018-08-28T01:02:57.575Z,982.1
2018-08-28T01:03:58.790Z,982.1
2018-08-28T01:05:00.097Z,982.2
2018-08-28T01:06:01.345Z,982.1
2018-08-28T01:07:02.589Z,981.9
2018-08-28T01:08:04.089Z,982.2
2018-08-28T01:09:05.360Z,982.2
2018-08-28T01:10:06.640Z,982.2
2018-08-28T01:11:07.848Z,982.2
2018-08-28T01:12:09.528Z,982.2
2018-08-28T01:13:10.765Z,982.2
2018-08-28T01:14:11.991Z,982.2
2018-08-28T01:15:13.234Z,982.2
2018-08-28T01:16:14.469Z,982.2
2018-08-28T01:17:15.712Z,982.2
2018-08-28T01:18:16.929Z,982.2
2018-08-28T01:19:18.230Z,982.2
2018-08-28T01:20:19.471Z,982.3
2018-08-28T01:21:20.721Z,982.2
2018-08-28T01:22:21.992Z,982.2
2018-08-28T01:23:23.258Z,982.2
2018-08-28T01:24:24.470Z,982.2
2018-08-28T01:25:25.694Z,982.3
2018-08-28T01:26:26.927Z,982.3
2018-08-28T01:27:28.367Z,982.3
2018-08-28T01:28:29.635Z,982.2
2018-08-28T01:29:30.861Z,982.2
2018-08-28T01:30:32.075Z,982.3
2018-08-28T01:31:33.308Z,982.3
2018-08-28T01:32:34.575Z,982.3
2018-08-28T01:33:35.835Z,982.3
2018-08-28T01:34:37.053Z,982.3
2018-08-28T01:35:38.305Z,982.3
2018-08-28T01:36:39.531Z,982.3
2018-08-28T01:37:40.814Z,982.3
2018-08-28T01:38:42.019Z,982.3
2018-08-28T01:39:43.259Z,982.3
2018-08-28T01:40:44.466Z,982.3
2018-08-28T01:41:45.704Z,982.4
2018-08-28T01:42:46.982Z,982.1
2018-08-28T01:43:48.190Z,982.3
2018-08-28T01:44:49.461Z,982.3
2018-08-28T01:45:50.722Z,982.3
2018-08-28T01:46:52.038Z,982.4
2018-08-28T01:47:53.339Z,982.4
2018-08-28T01:48:54.606Z,982.4
2018-08-28T01:49:55.854Z,982.4
2018-08-28T01:50:57.115Z,982.4
2018-08-28T01:51:58.370Z,982.4
2018-08-28T01:52:59.771Z,982.4
2018-08-28T01:54:01.063Z,982.4
2018-08-28T01:55:02.395Z,982.4
2018-08-28T01:56:03.609Z,982.5
2018-08-28T01:57:04.869Z,982.5
2018-08-28T01:58:06.466Z,982.5
2018-08-28T01:59:08.104Z,982.5
2018-08-28T02:00:09.386Z,982.5
2018-08-28T02:01:10.639Z,982.5
2018-08-28T02:02:11.895Z,982.5
2018-08-28T02:03:13.168Z,982.5
2018-08-28T02:04:14.396Z,982.5
2018-08-28T02:05:15.894Z,982.5
2018-08-28T02:06:17.172Z,982.5
2018-08-28T02:07:18.499Z,982.6
2018-08-28T02:08:19.776Z,982.5
2018-08-28T02:09:20.999Z,982.5
2018-08-28T02:10:22.220Z,982.5
2018-08-28T02:11:23.430Z,982.5
2018-08-28T02:12:24.659Z,982.5
2018-08-28T02:13:25.934Z,982.5
2018-08-28T02:14:27.161Z,982.5
2018-08-28T02:15:28.417Z,982.5
2018-08-28T02:16:29.648Z,982.5
2018-08-28T02:17:30.913Z,982.5
2018-08-28T02:18:32.299Z,982.5
2018-08-28T02:19:33.506Z,982.6
2018-08-28T02:20:34.753Z,982.5
2018-08-28T02:21:35.993Z,982.5
2018-08-28T02:22:37.242Z,982.6
2018-08-28T02:23:38.490Z,982.6
2018-08-28T02:24:39.713Z,982.6
2018-08-28T02:25:40.933Z,982.6
2018-08-28T02:26:42.164Z,982.6
2018-08-28T02:27:43.388Z,982.6
2018-08-28T02:28:44.720Z,982.6
2018-08-28T02:29:45.944Z,982.6
2018-08-28T02:30:47.228Z,982.6
2018-08-28T02:31:48.502Z,982.7
2018-08-28T02:32:49.749Z,982.7
2018-08-28T02:33:51.096Z,982.7
2018-08-28T02:34:52.333Z,982.7
2018-08-28T02:35:53.571Z,982.7
2018-08-28T02:36:54.824Z,982.7
2018-08-28T02:37:56.055Z,982.7
2018-08-28T02:38:57.346Z,982.7
2018-08-28T02:39:58.560Z,982.7
2018-08-28T02:40:59.824Z,982.7
2018-08-28T02:42:01.070Z,982.7
2018-08-28T02:43:02.326Z,982.4
2018-08-28T02:44:03.645Z,982.7
2018-08-28T02:45:04.877Z,982.6
2018-08-28T02:46:06.134Z,982.4
2018-08-28T02:47:07.364Z,982.4
2018-08-28T02:48:08.619Z,982.4
2018-08-28T02:49:09.875Z,982.6
2018-08-28T02:50:11.141Z,982.6
2018-08-28T02:51:12.361Z,982.4
2018-08-28T02:52:13.598Z,982.7
2018-08-28T02:53:14.842Z,982.7
2018-08-28T02:54:16.155Z,982.7
2018-08-28T02:55:17.400Z,982.8
2018-08-28T02:56:19.536Z,982.6
2018-08-28T02:57:20.739Z,982.8
2018-08-28T02:58:21.967Z,982.7
2018-08-28T02:59:23.245Z,982.7
2018-08-28T03:00:24.486Z,982.7
2018-08-28T03:01:25.708Z,982.7
2018-08-28T03:02:26.991Z,982.8
2018-08-28T03:03:28.238Z,982.8
2018-08-28T03:04:29.504Z,982.8
2018-08-28T03:05:30.753Z,982.7
2018-08-28T03:06:31.997Z,982.7
2018-08-28T03:07:33.208Z,982.8
2018-08-28T03:08:34.410Z,982.7
2018-08-28T03:09:35.676Z,982.7
2018-08-28T03:10:36.881Z,982.7
2018-08-28T03:11:38.137Z,982.7
2018-08-28T03:12:39.323Z,982.7
2018-08-28T03:13:40.534Z,982.8
2018-08-28T03:14:41.959Z,982.8
2018-08-28T03:15:43.194Z,982.8
2018-08-28T03:16:44.461Z,982.8
2018-08-28T03:17:45.665Z,982.7
2018-08-28T03:18:46.900Z,982.8
2018-08-28T03:19:48.178Z,982.8
2018-08-28T03:20:49.686Z,982.9
2018-08-28T03:21:50.932Z,982.9
2018-08-28T03:22:52.135Z,982.9
2018-08-28T03:23:53.372Z,982.9
2018-08-28T03:24:54.620Z,982.9
2018-08-28T03:25:55.850Z,982.9
2018-08-28T03:26:57.098Z,982.9
2018-08-28T03:27:58.332Z,982.9
2018-08-28T03:28:59.639Z,982.9
2018-08-28T03:30:00.882Z,983
2018-08-28T03:31:02.197Z,982.9
2018-08-28T03:32:03.442Z,983
2018-08-28T03:33:04.666Z,983
2018-08-28T03:34:05.900Z,982.9
2018-08-28T03:35:09.999Z,983
2018-08-28T03:36:11.259Z,983
2018-08-28T03:37:12.539Z,982.9
2018-08-28T03:38:13.699Z,982.9
2018-08-28T03:39:14.928Z,982.9
2018-08-28T03:40:16.221Z,983
2018-08-28T03:41:17.480Z,983
2018-08-28T03:42:18.696Z,983
2018-08-28T03:43:19.903Z,983
2018-08-28T03:44:21.110Z,982.9
2018-08-28T03:45:22.447Z,982.9
2018-08-28T03:46:23.746Z,982.9
2018-08-28T03:47:25.025Z,982.9
2018-08-28T03:48:26.254Z,983
2018-08-28T03:49:27.511Z,983
2018-08-28T03:50:28.781Z,982.9
2018-08-28T03:51:30.019Z,982.9
2018-08-28T03:52:31.242Z,983
2018-08-28T03:53:32.434Z,983
2018-08-28T03:54:36.087Z,983
2018-08-28T03:55:37.373Z,983
2018-08-28T03:56:38.772Z,983
2018-08-28T03:57:39.993Z,983
2018-08-28T03:58:41.202Z,983
2018-08-28T03:59:42.429Z,983
2018-08-28T04:00:43.749Z,983.1
2018-08-28T04:01:45.046Z,983.1
2018-08-28T04:02:46.296Z,983.2
2018-08-28T04:03:47.537Z,983.1
2018-08-28T04:04:48.733Z,983.1
2018-08-28T04:05:50.017Z,983.1
2018-08-28T04:06:51.257Z,983.2
2018-08-28T04:07:52.484Z,983.1
2018-08-28T04:08:53.704Z,983.2
2018-08-28T04:09:54.937Z,983.2
2018-08-28T04:10:56.219Z,983.2
2018-08-28T04:11:57.503Z,983.3
2018-08-28T04:12:58.722Z,983.2
2018-08-28T04:13:59.972Z,983.2
2018-08-28T04:15:01.272Z,983.2
2018-08-28T04:16:02.583Z,983.2
2018-08-28T04:17:03.860Z,983.2
2018-08-28T04:18:05.181Z,983.2
2018-08-28T04:19:06.443Z,983.2
2018-08-28T04:20:07.810Z,983.2
2018-08-28T04:21:09.077Z,983.2
2018-08-28T04:22:10.336Z,983.3
2018-08-28T04:23:11.572Z,983.3
2018-08-28T04:24:12.791Z,983.3
2018-08-28T04:25:14.208Z,983.2
2018-08-28T04:26:15.522Z,983.3
2018-08-28T04:27:16.760Z,983.3
2018-08-28T04:28:18.027Z,983.3
2018-08-28T04:29:19.312Z,983.4
2018-08-28T04:30:20.568Z,983.3
2018-08-28T04:31:22.064Z,983.3
2018-08-28T04:32:23.333Z,983.3
2018-08-28T04:33:24.560Z,983.3
2018-08-28T04:34:26.125Z,983.4
2018-08-28T04:35:27.395Z,983.4
2018-08-28T04:36:28.642Z,983.3
2018-08-28T04:37:29.874Z,983.4
2018-08-28T04:38:31.115Z,983.4
2018-08-28T04:39:32.343Z,983.4
2018-08-28T04:40:33.580Z,983.4
2018-08-28T04:41:34.863Z,983.4
2018-08-28T04:42:36.135Z,983.4
2018-08-28T04:43:37.366Z,983.4
2018-08-28T04:44:38.581Z,983.3
2018-08-28T04:45:39.816Z,983.2
2018-08-28T04:46:41.094Z,983.5
2018-08-28T04:47:42.330Z,983.4
2018-08-28T04:48:43.597Z,983.5
2018-08-28T04:49:44.802Z,983.4
2018-08-28T04:50:46.038Z,983.4
2018-08-28T04:51:47.334Z,983.5
2018-08-28T04:52:48.578Z,983.5
2018-08-28T04:53:50.245Z,983.5
2018-08-28T04:54:52.735Z,983.5
2018-08-28T04:55:53.973Z,983.5
2018-08-28T04:56:55.254Z,983.6
2018-08-28T04:57:57.853Z,983.5
2018-08-28T04:58:59.082Z,983.6
2018-08-28T05:00:00.345Z,983.6
2018-08-28T05:01:01.654Z,983.5
2018-08-28T05:02:03.137Z,983.6
2018-08-28T05:03:04.385Z,983.6
2018-08-28T05:04:05.631Z,983.7
2018-08-28T05:05:06.905Z,983.6
2018-08-28T05:06:08.140Z,983.6
2018-08-28T05:07:09.454Z,983.4
2018-08-28T05:08:10.710Z,983.6
2018-08-28T05:09:11.929Z,983.6
2018-08-28T05:10:13.160Z,983.7
2018-08-28T05:11:16.166Z,983.6
2018-08-28T05:12:18.323Z,983.7
2018-08-28T05:13:19.526Z,983.7
2018-08-28T05:14:20.774Z,983.5
2018-08-28T05:15:22.019Z,983.7
2018-08-28T05:16:23.262Z,983.4
2018-08-28T05:17:24.558Z,983.7
2018-08-28T05:18:25.805Z,983.6
2018-08-28T05:19:29.828Z,983.6
2018-08-28T05:20:31.102Z,983.7
2018-08-28T05:21:32.334Z,983.7
2018-08-28T05:22:33.590Z,983.7
2018-08-28T05:23:34.827Z,983.7
2018-08-28T05:24:36.075Z,983.7
2018-08-28T05:25:37.405Z,983.7
2018-08-28T05:26:38.747Z,983.4
2018-08-28T05:27:40.033Z,983.7
2018-08-28T05:28:41.280Z,983.8
2018-08-28T05:29:42.608Z,983.8
2018-08-28T05:30:43.908Z,983.8
2018-08-28T05:31:45.245Z,983.8
2018-08-28T05:32:46.603Z,983.7
2018-08-28T05:33:47.938Z,983.8
2018-08-28T05:34:49.207Z,983.9
2018-08-28T05:35:50.482Z,983.6
2018-08-28T05:36:54.235Z,983.7
2018-08-28T05:37:55.607Z,983.9
2018-08-28T05:38:56.821Z,983.9
2018-08-28T05:40:00.751Z,983.9
2018-08-28T05:41:02.050Z,983.9
2018-08-28T05:42:03.282Z,983.9
2018-08-28T05:43:04.571Z,983.8
2018-08-28T05:44:05.811Z,983.9
2018-08-28T05:45:07.095Z,983.9
2018-08-28T05:46:08.355Z,983.8
2018-08-28T05:47:09.656Z,983.9
2018-08-28T05:48:10.985Z,983.9
2018-08-28T05:49:12.229Z,983.9
2018-08-28T05:50:13.517Z,983.9
2018-08-28T05:51:14.773Z,983.9
2018-08-28T05:52:16.066Z,983.9
2018-08-28T05:53:17.593Z,984
2018-08-28T05:54:18.869Z,983.9
2018-08-28T05:55:20.090Z,984
2018-08-28T05:56:21.334Z,984
2018-08-28T05:57:22.574Z,984
2018-08-28T05:58:23.872Z,984
2018-08-28T05:59:27.327Z,984
2018-08-28T06:00:28.554Z,983.8
2018-08-28T06:01:29.794Z,984
2018-08-28T06:02:31.035Z,984.1
2018-08-28T06:03:32.327Z,984
2018-08-28T06:04:33.545Z,984
2018-08-28T06:05:34.846Z,984.1
2018-08-28T06:06:36.134Z,984.1
2018-08-28T06:07:37.421Z,984.1
2018-08-28T06:08:39.129Z,984
2018-08-28T06:09:40.437Z,984.1
2018-08-28T06:10:41.658Z,984.1
2018-08-28T06:11:42.902Z,984.1
2018-08-28T06:12:44.142Z,983.9
2018-08-28T06:13:48.411Z,984.1
2018-08-28T06:14:49.697Z,984.2
2018-08-28T06:15:50.887Z,983.9
2018-08-28T06:16:52.580Z,984.1
2018-08-28T06:17:53.907Z,984.1
2018-08-28T06:18:55.359Z,983.9
2018-08-28T06:19:56.599Z,984.2
2018-08-28T06:20:57.927Z,984.2
2018-08-28T06:22:04.106Z,984
2018-08-28T06:23:05.376Z,984.1
2018-08-28T06:24:06.660Z,984.2
2018-08-28T06:25:07.954Z,984.1
2018-08-28T06:26:09.257Z,984.1
2018-08-28T06:27:10.522Z,984.2
2018-08-28T06:28:12.050Z,984.2
2018-08-28T06:29:13.350Z,984.1
2018-08-28T06:30:14.657Z,984.2
2018-08-28T06:31:18.103Z,984.2
2018-08-28T06:32:24.119Z,984.2
2018-08-28T06:33:25.379Z,984
2018-08-28T06:34:26.923Z,984.2
2018-08-28T06:35:28.231Z,984.2
2018-08-28T06:36:31.966Z,984.2
2018-08-28T06:37:36.076Z,984.2
2018-08-28T06:38:42.904Z,984.3
2018-08-28T06:39:44.248Z,984.2
2018-08-28T06:40:45.491Z,984.2
2018-08-28T06:41:46.916Z,984.2
2018-08-28T06:42:48.148Z,984.3
2018-08-28T06:43:49.502Z,984.2
2018-08-28T06:44:50.658Z,984.2
2018-08-28T06:45:51.969Z,984.3
2018-08-28T06:46:53.270Z,984.3
2018-08-28T06:47:54.595Z,984.3
2018-08-28T06:48:58.094Z,984.3
2018-08-28T06:49:59.416Z,984.3
2018-08-28T06:51:00.707Z,984.3
2018-08-28T06:52:04.623Z,984.4
2018-08-28T06:53:05.945Z,984.3
2018-08-28T06:54:09.561Z,984.4
2018-08-28T06:55:10.883Z,984.3
2018-08-28T06:56:12.153Z,984.3
2018-08-28T06:57:13.603Z,984.4
2018-08-28T06:58:14.885Z,984.4
2018-08-28T06:59:16.412Z,984.4
2018-08-28T07:00:17.772Z,984.4
2018-08-28T07:01:21.899Z,984.4
2018-08-28T07:02:23.282Z,984.3
2018-08-28T07:03:26.282Z,984.4
2018-08-28T07:04:28.667Z,984.4
2018-08-28T07:05:29.998Z,984.3
2018-08-28T07:06:37.410Z,984.3
2018-08-28T07:07:38.694Z,984.4
2018-08-28T07:08:39.985Z,984.4
2018-08-28T07:09:41.266Z,984.4
2018-08-28T07:10:42.580Z,984.4
2018-08-28T07:11:46.306Z,984.4
2018-08-28T07:12:47.573Z,984.4
2018-08-28T07:13:48.815Z,984.5
2018-08-28T07:14:50.043Z,984.4
2018-08-28T07:15:51.387Z,984.5
2018-08-28T07:16:52.858Z,984.5
2018-08-28T07:17:54.345Z,984.4
2018-08-28T07:18:55.576Z,984.5
2018-08-28T07:19:56.842Z,984.5
2018-08-28T07:20:58.458Z,984.3
2018-08-28T07:21:59.716Z,984.5
2018-08-28T07:23:01.655Z,984.5
2018-08-28T07:24:02.971Z,984.5
2018-08-28T07:25:04.389Z,984.5
2018-08-28T07:26:05.791Z,984.5
2018-08-28T07:27:09.948Z,984.6
2018-08-28T07:28:11.287Z,984.6
2018-08-28T07:29:14.714Z,984.6
2018-08-28T07:30:15.986Z,984.5
2018-08-28T07:31:17.400Z,984.6
2018-08-28T07:32:21.531Z,984.6
2018-08-28T07:33:22.791Z,984.6
2018-08-28T07:34:24.084Z,984.6
2018-08-28T07:35:25.343Z,984.6
2018-08-28T07:36:26.684Z,984.7
2018-08-28T07:37:28.022Z,984.7
2018-08-28T07:38:29.267Z,984.7
2018-08-28T07:39:30.520Z,984.7
2018-08-28T07:40:32.127Z,984.5
2018-08-28T07:41:33.478Z,984.6
2018-08-28T07:42:34.716Z,984.7
2018-08-28T07:43:35.989Z,984.8
2018-08-28T07:44:37.215Z,984.5
2018-08-28T07:45:38.598Z,984.7
2018-08-28T07:46:39.956Z,984.7
2018-08-28T07:47:41.194Z,984.7
2018-08-28T07:48:42.467Z,984.5
2018-08-28T07:49:48.747Z,984.7
2018-08-28T07:50:50.020Z,984.7
2018-08-28T07:51:51.589Z,984.7
2018-08-28T07:52:52.894Z,984.7
2018-08-28T07:53:54.250Z,984.7
2018-08-28T07:54:55.653Z,984.6
2018-08-28T07:55:56.994Z,984.7
2018-08-28T07:56:58.351Z,984.6
2018-08-28T07:57:59.593Z,984.5
2018-08-28T07:59:00.991Z,984.7
2018-08-28T08:00:03.213Z,984.8
2018-08-28T08:01:04.484Z,984.8
2018-08-28T08:03:14.603Z,984.7
2018-08-28T08:04:16.435Z,984.8
2018-08-28T08:05:17.777Z,984.7
2018-08-28T08:06:19.067Z,984.7
2018-08-28T08:07:20.496Z,984.8
2018-08-28T08:08:21.751Z,984.8
2018-08-28T08:09:23.010Z,984.8
2018-08-28T08:10:24.317Z,984.8
2018-08-28T08:11:25.500Z,984.8
2018-08-28T08:12:26.766Z,984.9
2018-08-28T08:13:28.263Z,984.8
2018-08-28T08:14:29.495Z,984.8
2018-08-28T08:15:30.803Z,984.8
2018-08-28T08:16:33.847Z,984.8
2018-08-28T08:17:35.143Z,984.5
2018-08-28T08:18:36.671Z,984.8
2018-08-28T08:19:38.383Z,984.8
2018-08-28T08:20:54.066Z,984.6
2018-08-28T08:21:55.351Z,984.7
2018-08-28T08:22:56.924Z,984.7
2018-08-28T08:24:01.120Z,984.8
2018-08-28T08:25:02.622Z,984.8
2018-08-28T08:26:04.013Z,984.7
2018-08-28T08:27:05.324Z,984.8
2018-08-28T08:28:07.869Z,984.7
2018-08-28T08:29:09.301Z,984.7
2018-08-28T08:30:10.556Z,984.8
2018-08-28T08:31:11.823Z,984.7
2018-08-28T08:32:13.419Z,984.7
2018-08-28T08:33:16.899Z,984.7
2018-08-28T08:34:18.280Z,984.7
2018-08-28T08:35:19.731Z,984.8
2018-08-28T08:36:21.187Z,984.9
2018-08-28T08:37:25.342Z,984.9
2018-08-28T08:38:26.893Z,984.9
2018-08-28T08:39:31.658Z,984.9
2018-08-28T08:40:34.862Z,985
2018-08-28T08:41:36.414Z,985
2018-08-28T08:42:40.128Z,985.1
2018-08-28T08:43:41.471Z,985
2018-08-28T08:44:43.125Z,985.3
2018-08-28T08:45:44.637Z,985.1
2018-08-28T08:46:45.863Z,984.6
2018-08-28T08:47:51.332Z,984.9
2018-08-28T08:48:52.698Z,985.1
2018-08-28T08:49:55.189Z,984.8
2018-08-28T08:50:58.853Z,985.1
2018-08-28T08:52:02.902Z,984.9
2018-08-28T08:53:06.907Z,984.8
2018-08-28T08:54:10.569Z,985.1
2018-08-28T08:55:11.829Z,985.2
2018-08-28T08:56:18.102Z,985.1
2018-08-28T08:57:19.478Z,985
2018-08-28T08:58:20.667Z,984.9
2018-08-28T08:59:22.709Z,985
2018-08-28T09:00:27.376Z,985
2018-08-28T09:01:28.676Z,985.1
2018-08-28T09:02:34.048Z,984.7
2018-08-28T09:03:40.560Z,984.8
2018-08-28T09:04:47.092Z,985.1
2018-08-28T09:05:48.331Z,985.1
2018-08-28T09:06:49.695Z,984.9
2018-08-28T09:07:54.113Z,985.1
2018-08-28T09:08:55.410Z,985
2018-08-28T09:10:01.584Z,984.8
2018-08-28T09:11:02.874Z,984.5
2018-08-28T09:12:06.930Z,984.7
2018-08-28T09:13:10.965Z,984.5
2018-08-28T09:14:15.090Z,985.1
2018-08-28T09:15:21.465Z,985.1
2018-08-28T09:16:22.716Z,985.1
2018-08-28T09:17:24.020Z,984.6
2018-08-28T09:18:25.324Z,984.9
2018-08-28T09:19:27.013Z,984.9
2018-08-28T09:20:28.276Z,984.8
2018-08-28T09:21:33.338Z,985
2018-08-28T09:22:34.620Z,985.1
2018-08-28T09:23:35.903Z,985.3
2018-08-28T09:24:37.188Z,985
2018-08-28T09:25:38.479Z,984.9
2018-08-28T09:26:42.955Z,984.8
2018-08-28T09:27:50.663Z,984.8
2018-08-28T09:28:56.364Z,984.9
2018-08-28T09:29:58.996Z,985.1
2018-08-28T09:31:00.282Z,985.3
2018-08-28T09:32:06.626Z,985
2018-08-28T09:33:09.597Z,985.1
2018-08-28T09:34:13.263Z,984.9
2018-08-28T09:35:14.566Z,984.9
2018-08-28T09:36:15.889Z,985.3
2018-08-28T09:37:17.267Z,985.2
2018-08-28T09:38:18.865Z,985
2018-08-28T09:39:20.051Z,984.9
2018-08-28T09:40:21.525Z,984.7
2018-08-28T09:41:22.780Z,984.5
2018-08-28T09:42:24.038Z,984.6
2018-08-28T09:43:27.902Z,984.7
2018-08-28T09:44:29.635Z,985
2018-08-28T09:45:33.424Z,984.9
2018-08-28T09:46:37.246Z,984.8
2018-08-28T09:47:38.510Z,985.1
2018-08-28T09:48:42.615Z,985.2
2018-08-28T09:49:46.668Z,985.4
2018-08-28T09:50:48.218Z,985.3
2018-08-28T09:51:49.620Z,984.9
2018-08-28T09:52:50.928Z,984.9
2018-08-28T09:53:57.765Z,984.8
2018-08-28T09:55:00.279Z,984.7
2018-08-28T09:56:04.445Z,984.8
2018-08-28T09:57:05.937Z,984.5
2018-08-28T09:58:10.211Z,984.9
2018-08-28T09:59:16.269Z,984.7
2018-08-28T10:00:19.134Z,985
2018-08-28T10:01:20.371Z,985.2
2018-08-28T10:02:22.719Z,985.1
2018-08-28T10:03:25.936Z,984.8
2018-08-28T10:04:30.425Z,984.7
2018-08-28T10:05:31.674Z,984.7
2018-08-28T10:06:33.120Z,985
2018-08-28T10:07:34.413Z,985
2018-08-28T10:08:35.850Z,985
2018-08-28T10:09:37.387Z,985.1
2018-08-28T10:10:38.628Z,984.9
2018-08-28T10:11:40.134Z,984.7
2018-08-28T10:12:41.496Z,984.9
2018-08-28T10:13:45.391Z,984.8
2018-08-28T10:14:47.421Z,984.7
2018-08-28T10:15:50.164Z,984.8
2018-08-28T10:16:51.688Z,984.6
2018-08-28T10:17:53.055Z,984.4
2018-08-28T10:18:57.828Z,984.7
2018-08-28T10:19:59.279Z,984.9
2018-08-28T10:21:00.545Z,984.7
2018-08-28T10:22:01.897Z,984.5
2018-08-28T10:23:03.350Z,984.6
2018-08-28T10:24:06.326Z,984.9
2018-08-28T10:25:07.706Z,984.8
2018-08-28T10:26:14.684Z,984.9
2018-08-28T10:27:17.712Z,984.7
2018-08-28T10:28:19.109Z,984.8
2018-08-28T10:29:20.801Z,984.8
2018-08-28T10:30:22.161Z,984.9
2018-08-28T10:31:23.647Z,985
2018-08-28T10:32:28.258Z,984.8
2018-08-28T10:33:29.621Z,984.8
2018-08-28T10:34:32.994Z,984.8
2018-08-28T10:35:34.627Z,984.5
2018-08-28T10:36:50.572Z,984.6
2018-08-28T10:37:53.567Z,984.7
2018-08-28T10:38:54.868Z,984.7
2018-08-28T10:40:02.763Z,984.5
2018-08-28T10:41:12.893Z,984.7
2018-08-28T10:42:20.233Z,984.6
2018-08-28T10:43:25.027Z,984.5
2018-08-28T10:44:29.718Z,984.3
2018-08-28T10:45:33.570Z,984.3
2018-08-28T10:46:44.173Z,984.3
2018-08-28T10:47:45.466Z,984.5
2018-08-28T10:48:49.323Z,984.8
2018-08-28T10:49:50.886Z,985
2018-08-28T10:50:55.134Z,984.7
2018-08-28T10:51:56.751Z,984.4
2018-08-28T10:52:58.140Z,984.8
2018-08-28T10:54:01.931Z,984.9
2018-08-28T10:55:03.353Z,984.7
2018-08-28T10:56:05.631Z,984.8
2018-08-28T10:57:23.569Z,984.7
2018-08-28T10:58:24.874Z,984.6
2018-08-28T10:59:32.775Z,984.5
2018-08-28T11:00:34.109Z,984.5
2018-08-28T11:01:35.538Z,984.6
2018-08-28T11:02:36.803Z,984.5
2018-08-28T11:03:44.080Z,984.7
2018-08-28T11:04:45.634Z,984.6
2018-08-28T11:05:47.083Z,984.8
2018-08-28T11:07:00.283Z,984.7
2018-08-28T11:08:03.662Z,984.6
2018-08-28T11:09:05.288Z,984.6
2018-08-28T11:10:08.887Z,984.5
2018-08-28T11:11:10.337Z,984.5
2018-08-28T11:12:11.819Z,984.4
2018-08-28T11:13:16.488Z,984.7
2018-08-28T11:14:20.378Z,984.7
2018-08-28T11:15:21.718Z,984.7
2018-08-28T11:16:26.154Z,984.8
2018-08-28T11:17:30.484Z,984.7
2018-08-28T11:18:34.678Z,984.6
2018-08-28T11:19:37.081Z,984.7
2018-08-28T11:20:38.570Z,984.6
2018-08-28T11:21:40.277Z,984.5
2018-08-28T11:23:05.809Z,984.2
2018-08-28T11:24:07.297Z,984.4
2018-08-28T11:25:08.622Z,984.3
2018-08-28T11:26:12.583Z,984.4
2018-08-28T11:27:14.029Z,984.5
2018-08-28T11:28:16.002Z,984.5
2018-08-28T11:29:18.842Z,984.5
2018-08-28T11:30:26.723Z,984.6
2018-08-28T11:31:28.095Z,984.3
2018-08-28T11:32:29.761Z,984.5
2018-08-28T11:33:31.089Z,984.5
2018-08-28T11:34:32.597Z,984.5
2018-08-28T11:35:34.190Z,984.6
2018-08-28T11:36:38.506Z,984.5
2018-08-28T11:37:45.304Z,984.4
2018-08-28T11:38:50.485Z,984.4
2018-08-28T11:39:53.904Z,984.5
2018-08-28T11:40:55.460Z,984.2
2018-08-28T11:41:57.131Z,984.3
2018-08-28T11:43:00.890Z,984.4
2018-08-28T11:44:08.735Z,984.3
2018-08-28T11:45:10.363Z,984.3
2018-08-28T11:46:12.617Z,984.4
2018-08-28T11:47:17.725Z,984.3
2018-08-28T11:48:20.189Z,984.3
2018-08-28T11:49:21.651Z,984.2
2018-08-28T11:50:23.348Z,984.2
2018-08-28T11:51:25.960Z,984.3
2018-08-28T11:52:27.316Z,984.1
2018-08-28T11:53:31.963Z,984.3
2018-08-28T11:54:33.426Z,984.2
2018-08-28T11:55:37.136Z,984.2
2018-08-28T11:56:40.222Z,984.3
2018-08-28T11:58:56.466Z,984.4
2018-08-28T12:00:09.228Z,984.4
2018-08-28T12:01:17.530Z,984.4
2018-08-28T12:02:35.199Z,984.3
2018-08-28T12:03:38.364Z,984.2
2018-08-28T12:04:40.125Z,984.1
2018-08-28T12:05:50.746Z,984
2018-08-28T12:06:55.203Z,984.2
2018-08-28T12:08:01.467Z,984.2
2018-08-28T12:09:17.757Z,984.2
2018-08-28T12:10:20.163Z,984.4
2018-08-28T12:11:21.779Z,984.2
2018-08-28T12:12:24.380Z,984
2018-08-28T12:14:58.003Z,984.1
2018-08-28T12:16:02.282Z,983.7
2018-08-28T12:17:04.004Z,984.1
2018-08-28T12:18:07.598Z,984
2018-08-28T12:19:09.147Z,984
2018-08-28T12:20:13.372Z,984
2018-08-28T12:21:14.984Z,984
2018-08-28T12:22:19.328Z,983.7
2018-08-28T12:23:28.582Z,983.9
2018-08-28T12:24:31.009Z,983.9
2018-08-28T12:25:38.617Z,983.9
2018-08-28T12:26:42.573Z,983.7
2018-08-28T12:27:45.128Z,983.7
2018-08-28T12:28:46.382Z,983.6
2018-08-28T12:29:52.023Z,983.8
2018-08-28T12:30:53.728Z,983.9
2018-08-28T12:31:57.776Z,983.9
2018-08-28T12:33:05.279Z,983.9
2018-08-28T12:34:09.152Z,983.9
2018-08-28T12:35:10.490Z,983.8
2018-08-28T12:36:11.735Z,983.8
2018-08-28T12:37:13.356Z,983.8
2018-08-28T12:38:15.938Z,983.8
2018-08-28T12:39:17.318Z,983.7
2018-08-28T12:40:18.758Z,983.8
2018-08-28T12:41:26.010Z,983.6
2018-08-28T12:42:32.117Z,983.6
2018-08-28T12:43:33.342Z,983.7
2018-08-28T12:44:34.878Z,983.7
2018-08-28T12:45:39.527Z,983.7
2018-08-28T12:46:41.123Z,983.7
2018-08-28T12:47:42.366Z,983.5
2018-08-28T12:48:43.818Z,983.7
2018-08-28T12:49:50.519Z,983.6
2018-08-28T12:50:53.692Z,983.6
2018-08-28T12:51:54.950Z,983.5
2018-08-28T12:52:56.257Z,983.5
2018-08-28T12:53:57.892Z,983.6
2018-08-28T12:55:00.189Z,983.6
2018-08-28T12:56:01.741Z,983.6
2018-08-28T12:57:03.788Z,983.5
2018-08-28T12:58:05.188Z,983.5
2018-08-28T12:59:06.488Z,983.6
2018-08-28T13:00:09.383Z,983.4
2018-08-28T13:01:10.704Z,983.6
2018-08-28T13:02:12.843Z,983.4
2018-08-28T13:03:14.571Z,983.4
2018-08-28T13:04:15.883Z,983.5
2018-08-28T13:05:19.780Z,983.5
2018-08-28T13:06:23.611Z,983.5
2018-08-28T13:07:28.509Z,983.5
2018-08-28T13:08:29.920Z,983.5
2018-08-28T13:09:44.234Z,983.5
2018-08-28T13:10:46.684Z,983.5
2018-08-28T13:11:50.421Z,983.5
2018-08-28T13:12:52.125Z,983.6
2018-08-28T13:13:53.410Z,983.5
2018-08-28T13:14:59.636Z,983.5
2018-08-28T13:16:02.811Z,983.3
2018-08-28T13:17:07.877Z,983.4
2018-08-28T13:18:09.283Z,983.3
2018-08-28T13:19:10.913Z,983.4
2018-08-28T13:20:12.262Z,983.4
2018-08-28T13:21:17.779Z,983.3
2018-08-28T13:22:22.403Z,983.3
2018-08-28T13:23:24.323Z,983.4
2018-08-28T13:24:25.719Z,983.4
2018-08-28T13:25:27.081Z,983.3
2018-08-28T13:26:28.459Z,983.1
2018-08-28T13:27:29.950Z,983.2
2018-08-28T13:28:36.362Z,983.4
2018-08-28T13:29:39.507Z,983.4